KHTS/HTS METAR and TAF weather

Enter ICAO airport designator
Station Type Date Time Source
KHTS METAR 2021/04/18 01:51 UTC NOAA

KHTS 180151Z 31006KT 10SM BKN055 OVC085 11/06 A2993 RMK AO2 SLP134 T01110056


Station Type Date Time Source
KHTS Decoded METAR 2021/04/18 01:51 UTC NOAA

TRI-STATE AIRPORT, WV, United States (KHTS) 38-22N 082-33W 254M
Apr 17, 2021 - 09:51 PM EDT / 2021.04.18 0151 UTC
Wind: from the NW (310 degrees) at 7 MPH (6 KT):0
Visibility: 10 mile(s):0
Sky conditions: overcast
Temperature: 52.0 F (11.1 C)
Dew Point: 42.1 F (5.6 C)
Relative Humidity: 68%
Pressure (altimeter): 29.93 in. Hg (1013 hPa)
ob: KHTS 180151Z 31006KT 10SM BKN055 OVC085 11/06 A2993 RMK AO2 SLP134 T01110056
cycle: 2

Station Type Date Time Source
KHTS TAF 2021/04/17 18:36 UTC NOAA

TAF KHTS 171734Z 1718/1818 24003KT P6SM VCSH OVC080
FM172300 31005KT P6SM BKN040
FM180400 00000KT 4SM BR BKN035
FM180700 00000KT 3SM BR BKN015
FM181300 27002KT P6SM OVC020
FM181500 29003KT P6SM OVC050

Example: see airport list